Time;durP1;ratioP1;P1;durP2;ratioP2;P2;SDS_P1;SDS_P2;PMS_P1;PMS_P2;Temp;Humidity;BMP_temperature;BMP_pressure;BME280_temperature;BME280_humidity;BME280_pressure;Samples;Min_cycle;Max_cycle;Signal;HPM_P1;HPM_P2
2022/09/05 00:05:08;;;;;;;9.50;4.50;;;;;;;20.33;64.24;101481.06;5077347;28;20850;-57
2022/09/05 00:07:46;;;;;;;9.80;4.53;;;;;;;20.41;64.04;101480.09;5067500;28;20449;-57
2022/09/05 00:10:40;;;;;;;12.20;4.90;;;;;;;20.37;63.97;101484.19;5069714;28;20044;-57
2022/09/05 00:13:16;;;;;;;9.25;4.47;;;;;;;20.31;64.23;101485.84;5050361;28;20069;-56
2022/09/05 00:16:04;;;;;;;8.98;4.38;;;;;;;20.30;64.52;101486.88;5050605;28;20041;-57
2022/09/05 00:18:57;;;;;;;11.77;4.70;;;;;;;20.28;64.28;101488.94;5050176;28;20033;-56
2022/09/05 00:22:04;;;;;;;11.98;4.35;;;;;;;20.15;64.43;101491.56;5048926;28;20053;-56
2022/09/05 00:24:57;;;;;;;11.27;4.18;;;;;;;20.13;65.04;101486.38;5026432;28;20045;-57
2022/09/05 00:31:02;;;;;;;11.57;4.32;;;;;;;20.03;65.15;101482.38;5131766;27;20159;-57
2022/09/05 00:33:37;;;;;;;8.55;4.07;;;;;;;20.08;65.29;101485.31;5094990;28;20113;-57
2022/09/05 00:36:44;;;;;;;12.50;4.43;;;;;;;20.03;65.05;101483.22;5111062;28;20433;-57
2022/09/05 00:39:21;;;;;;;9.20;4.03;;;;;;;20.06;64.71;101474.72;5110600;28;20067;-57
2022/09/05 00:41:53;;;;;;;9.02;4.00;;;;;;;20.04;64.84;101486.75;5111127;28;20055;-57
2022/09/05 00:44:25;;;;;;;7.65;3.92;;;;;;;19.99;64.92;101476.56;5110893;28;20524;-56
2022/09/05 00:47:22;;;;;;;7.82;3.67;;;;;;;19.98;65.05;101482.16;5110717;28;20043;-57
2022/09/05 00:49:58;;;;;;;8.40;4.10;;;;;;;19.94;65.50;101479.84;5110242;28;20072;-56
2022/09/05 00:52:32;;;;;;;6.90;3.75;;;;;;;19.88;65.67;101485.19;5110960;28;20097;-57
2022/09/05 00:55:36;;;;;;;9.13;3.85;;;;;;;19.87;65.35;101487.06;5093350;28;20090;-57
2022/09/05 00:58:35;;;;;;;11.35;4.00;;;;;;;19.84;66.09;101489.31;5092158;28;20501;-57
2022/09/05 01:01:20;;;;;;;11.80;4.30;;;;;;;19.81;65.77;101482.47;5109732;28;20052;-57
2022/09/05 01:04:18;;;;;;;11.00;4.32;;;;;;;19.74;66.60;101481.59;5110734;28;20040;-57
2022/09/05 01:07:05;;;;;;;9.00;4.55;;;;;;;19.76;66.43;101484.94;5110449;28;20048;-57
2022/09/05 01:10:02;;;;;;;12.50;4.18;;;;;;;19.67;66.77;101483.38;5110397;28;20063;-57
2022/09/05 01:13:08;;;;;;;10.95;4.35;;;;;;;19.68;67.07;101488.56;5110316;28;20044;-57
2022/09/05 01:16:14;;;;;;;10.73;4.07;;;;;;;19.69;67.29;101492.09;5110041;28;20448;-57
2022/09/05 01:18:59;;;;;;;8.90;3.80;;;;;;;19.60;67.26;101493.25;5110266;28;20040;-57
2022/09/05 01:22:03;;;;;;;10.30;4.28;;;;;;;19.58;66.98;101479.19;5110160;28;20148;-57
2022/09/05 01:25:10;;;;;;;11.43;4.20;;;;;;;19.46;67.85;101482.38;5070540;28;20428;-56
2022/09/05 01:27:46;;;;;;;10.25;4.30;;;;;;;19.52;67.51;101483.47;5109962;28;20044;-57
2022/09/05 01:30:36;;;;;;;8.45;4.25;;;;;;;19.50;68.17;101489.06;5092269;28;20397;-57
2022/09/05 01:33:24;;;;;;;7.45;3.80;;;;;;;19.46;67.92;101487.75;5089479;28;20101;-57
2022/09/05 01:36:30;;;;;;;9.07;4.38;;;;;;;19.46;68.27;101490.44;5077647;28;20051;-57
2022/09/05 01:41:47;;;;;;;7.40;3.80;;;;;;;19.47;68.43;101480.53;5070361;28;20386;-56
2022/09/05 01:44:25;;;;;;;7.80;3.90;;;;;;;19.41;68.32;101476.78;5070857;28;20055;-55
2022/09/05 01:47:22;;;;;;;9.68;3.63;;;;;;;19.40;68.07;101477.78;5070479;28;20048;-56
2022/09/05 01:50:00;;;;;;;9.95;4.03;;;;;;;19.41;68.24;101479.47;5070649;28;20040;-56
2022/09/05 01:52:46;;;;;;;11.27;3.90;;;;;;;19.42;68.05;101473.03;5070369;28;20482;-56
2022/09/05 01:55:46;;;;;;;8.40;4.20;;;;;;;19.39;68.34;101481.50;5070657;28;20051;-56
2022/09/05 02:01:31;;;;;;;9.13;3.72;;;;;;;19.34;68.09;101475.88;5131630;27;20168;-55
2022/09/05 02:04:33;;;;;;;8.88;3.85;;;;;;;19.35;68.19;101481.03;5108212;28;20040;-56
2022/09/05 02:07:30;;;;;;;10.00;3.38;;;;;;;19.19;68.13;101481.31;5077799;28;20048;-56
2022/09/05 02:10:37;;;;;;;7.40;3.70;;;;;;;19.24;68.43;101486.97;5090456;28;20041;-56
2022/09/05 02:13:27;;;;;;;9.30;3.72;;;;;;;19.29;68.13;101481.84;5090508;28;20097;-56
2022/09/05 02:16:22;;;;;;;7.45;3.65;;;;;;;19.28;68.35;101484.72;5090436;28;20041;-56
2022/09/05 02:24:46;;;;;;;9.88;3.80;;;;;;;19.26;67.99;101481.38;5075281;27;20824;-56
2022/09/05 02:27:18;;;;;;;;;;;;;;;19.26;67.97;101492.97;5111586;28;20086;-56
2022/09/05 02:30:05;;;;;;;7.95;3.58;;;;;;;19.26;67.99;101481.38;5111174;28;19921;-56
2022/09/05 02:35:18;;;;;;;25.13;3.97;;;;;;;19.18;67.91;101482.34;5110772;27;20121;-56
2022/09/05 02:38:10;;;;;;;7.60;3.65;;;;;;;19.20;68.13;101482.19;5111411;28;20515;-56
2022/09/05 02:40:45;;;;;;;10.27;3.70;;;;;;;19.21;68.07;101486.50;5110104;28;20060;-56
2022/09/05 02:43:52;;;;;;;11.27;3.88;;;;;;;19.19;68.00;101484.00;5111322;28;20040;-56
2022/09/05 02:46:35;;;;;;;8.30;3.53;;;;;;;19.10;68.05;101479.78;5110793;28;20066;-56
2022/09/05 02:49:10;;;;;;;7.07;3.58;;;;;;;19.14;67.62;101483.78;5110845;28;20049;-57
2022/09/05 02:52:10;;;;;;;11.48;3.65;;;;;;;19.12;67.75;101480.47;5111068;28;20036;-57
2022/09/05 02:54:42;;;;;;;12.25;4.20;;;;;;;19.09;67.91;101481.66;5110619;28;20036;-57
2022/09/05 02:57:35;;;;;;;8.20;3.60;;;;;;;19.05;68.23;101491.13;5111005;28;20044;-57
2022/09/05 03:00:22;;;;;;;10.32;3.80;;;;;;;19.07;68.34;101485.56;5110483;28;20070;-57
2022/09/05 03:03:28;;;;;;;11.82;4.00;;;;;;;19.02;68.35;101480.75;5109530;28;20536;-57
2022/09/05 03:06:03;;;;;;;11.07;3.85;;;;;;;19.02;68.42;101482.63;5106735;28;20052;-57
2022/09/05 03:12:20;;;;;;;7.75;3.63;;;;;;;19.02;68.34;101486.13;5070374;28;20741;-57
2022/09/05 03:15:22;;;;;;;8.95;4.00;;;;;;;19.03;67.89;101484.28;5070320;28;20040;-56
2022/09/05 03:18:02;;;;;;;12.90;4.20;;;;;;;18.98;68.00;101485.69;5070204;28;20114;-56
2022/09/05 03:20:52;;;;;;;9.85;4.10;;;;;;;19.02;68.01;101486.13;5070438;28;20068;-57
2022/09/05 03:23:44;;;;;;;15.13;4.13;;;;;;;19.01;68.33;101484.50;5031388;28;20045;-57
2022/09/05 03:26:51;;;;;;;11.45;4.15;;;;;;;18.97;68.49;101481.34;5068866;28;20106;-56
2022/09/05 03:29:42;;;;;;;12.18;4.03;;;;;;;18.87;68.88;101478.13;5070148;28;20049;-56
2022/09/05 03:32:48;;;;;;;8.55;4.18;;;;;;;18.96;69.05;101485.06;5070060;28;20041;-57
2022/09/05 03:35:48;;;;;;;10.55;3.83;;;;;;;18.88;69.08;101481.66;5069298;28;20509;-57
2022/09/05 03:38:54;;;;;;;11.98;4.32;;;;;;;18.85;69.18;101477.50;5069914;28;20053;-57
2022/09/05 03:44:35;;;;;;;13.18;4.47;;;;;;;18.79;69.89;101483.59;5111645;27;20373;-56
2022/09/05 03:47:34;;;;;;;9.90;4.43;;;;;;;18.78;69.63;101488.13;5110830;28;20080;-56
2022/09/05 03:50:40;;;;;;;10.57;4.43;;;;;;;18.75;69.79;101493.88;5111099;28;20052;-56
2022/09/05 03:53:39;;;;;;;10.15;4.30;;;;;;;18.78;69.96;101490.00;5110893;28;20048;-57
2022/09/05 03:56:37;;;;;;;14.93;4.25;;;;;;;18.77;69.82;101491.00;5110908;28;20039;-55
2022/09/05 04:02:22;;;;;;;10.65;4.53;;;;;;;18.70;70.47;101495.47;5110821;27;20384;-55
2022/09/05 04:05:01;;;;;;;11.40;4.88;;;;;;;18.70;70.33;101490.97;5108028;28;20056;-56
2022/09/05 04:07:39;;;;;;;13.60;4.80;;;;;;;18.69;70.14;101494.66;5130339;28;20073;-57
2022/09/05 04:10:25;;;;;;;13.90;4.40;;;;;;;18.63;70.29;101492.72;5131799;27;20100;-57
2022/09/05 04:13:07;;;;;;;11.38;4.78;;;;;;;18.63;70.20;101492.72;5130963;27;20146;-56
2022/09/05 04:15:42;;;;;;;10.43;4.32;;;;;;;18.59;70.43;101496.78;5131533;27;20040;-56
2022/09/05 04:18:26;;;;;;;10.90;4.68;;;;;;;18.60;70.35;101495.78;5131317;27;20039;-57
2022/09/05 04:21:05;;;;;;;11.50;4.22;;;;;;;18.56;70.76;101491.81;5131385;27;20362;-56
2022/09/05 04:26:29;;;;;;;11.50;4.68;;;;;;;18.52;70.91;101498.56;5111137;27;20380;-56
2022/09/05 04:29:22;;;;;;;9.45;4.28;;;;;;;18.52;70.78;101499.41;5111321;28;20051;-55
2022/09/05 04:32:28;;;;;;;12.00;4.18;;;;;;;18.52;70.59;101498.56;5106027;28;20040;-57
2022/09/05 04:38:10;;;;;;;11.85;4.28;;;;;;;18.44;70.89;101504.06;5111167;27;20323;-56
2022/09/05 04:40:41;;;;;;;10.18;4.85;;;;;;;18.40;70.90;101499.06;5110827;28;20078;-58
2022/09/05 04:46:26;;;;;;;12.45;4.65;;;;;;;18.49;70.69;101507.03;5111135;27;20358;-55
2022/09/05 04:49:09;;;;;;;11.65;4.30;;;;;;;18.46;70.77;101494.78;5111465;28;20046;-55
2022/09/05 04:52:03;;;;;;;16.52;4.78;;;;;;;18.46;70.71;101493.97;5110777;28;20051;-56
2022/09/05 04:54:49;;;;;;;12.68;4.65;;;;;;;18.44;70.75;101496.81;5110653;28;20071;-56
2022/09/05 04:57:22;;;;;;;12.05;4.97;;;;;;;18.44;70.74;101504.88;5111266;28;20051;-57
2022/09/05 04:59:57;;;;;;;14.25;5.80;;;;;;;18.46;70.82;101504.69;5110723;28;20516;-57
2022/09/05 05:02:38;;;;;;;11.15;5.30;;;;;;;18.41;70.87;101506.09;5110585;28;20494;-56
2022/09/05 05:05:16;;;;;;;10.93;5.43;;;;;;;18.42;70.67;101510.44;5110437;28;20043;-59
2022/09/05 05:07:58;;;;;;;14.27;5.10;;;;;;;18.45;70.81;101511.13;5110978;28;20105;-57
2022/09/05 05:10:46;;;;;;;12.15;5.63;;;;;;;18.41;70.88;101510.66;5111057;28;20055;-57
2022/09/05 05:13:24;;;;;;;11.07;5.05;;;;;;;18.44;71.08;101514.81;5110332;28;20043;-57
2022/09/05 05:15:58;;;;;;;13.35;5.35;;;;;;;18.44;71.00;101514.81;5110403;28;20040;-57
2022/09/05 05:18:32;;;;;;;11.70;5.50;;;;;;;18.45;70.75;101519.16;5110809;28;20070;-57
2022/09/05 05:21:15;;;;;;;13.77;5.88;;;;;;;18.45;70.63;101521.84;5110545;28;20051;-57
2022/09/05 05:24:09;;;;;;;13.40;5.22;;;;;;;18.50;70.50;101522.09;5071154;28;20054;-57
2022/09/05 05:27:16;;;;;;;9.80;5.28;;;;;;;18.52;70.38;101523.59;5109901;28;20044;-57
2022/09/05 05:29:50;;;;;;;12.60;5.65;;;;;;;18.58;70.61;101525.53;5110255;28;20089;-57
2022/09/05 05:32:22;;;;;;;12.00;5.90;;;;;;;18.62;70.49;101523.28;5109324;28;20035;-57
2022/09/05 05:34:55;;;;;;;12.88;6.07;;;;;;;18.62;70.41;101528.66;5110281;28;20047;-57
2022/09/05 05:37:32;;;;;;;10.30;4.80;;;;;;;18.59;70.57;101524.53;5110003;28;20046;-57
2022/09/05 05:40:07;;;;;;;12.65;4.97;;;;;;;18.59;70.53;101521.84;5109657;28;20044;-57
2022/09/05 05:42:37;;;;;;;9.98;5.05;;;;;;;18.57;70.47;101525.72;5109644;28;20443;-57
2022/09/05 05:45:15;;;;;;;10.88;5.32;;;;;;;18.58;70.38;101524.69;5109327;28;20056;-57
2022/09/05 05:47:47;;;;;;;14.38;5.10;;;;;;;18.63;70.73;101524.97;5109516;28;20052;-57
2022/09/05 05:50:42;;;;;;;13.68;5.20;;;;;;;18.61;70.28;101525.16;5109180;28;20043;-57
2022/09/05 05:53:28;;;;;;;11.23;4.80;;;;;;;18.68;70.59;101527.94;5109413;28;20052;-56
2022/09/05 05:59:26;;;;;;;10.85;5.00;;;;;;;18.71;70.33;101532.09;5110771;27;20376;-55
2022/09/05 06:02:33;;;;;;;9.95;4.70;;;;;;;18.71;70.43;101535.59;5110718;28;20115;-56
2022/09/05 06:05:39;;;;;;;12.98;4.70;;;;;;;18.74;70.43;101542.47;5105689;28;20066;-55
2022/09/05 06:08:36;;;;;;;9.23;4.57;;;;;;;18.85;69.55;101538.50;5107947;28;20044;-55
2022/09/05 06:11:37;;;;;;;13.27;4.82;;;;;;;18.92;69.31;101544.78;5110454;28;20043;-55
2022/09/05 06:14:47;;;;;;;14.80;5.03;;;;;;;18.94;69.35;101546.25;5109442;28;20041;-56
2022/09/05 06:18:14;;;;;;;17.73;4.68;;;;;;;19.00;69.30;101539.28;5110728;28;20048;-56
2022/09/05 06:26:57;;;;;;;14.18;5.03;;;;;;;19.02;69.20;101544.47;5111166;27;20347;-56
2022/09/05 06:29:46;;;;;;;11.55;4.90;;;;;;;19.06;68.97;101548.44;5110785;28;20042;-55
2022/09/05 06:32:34;;;;;;;11.07;5.32;;;;;;;19.08;68.32;101541.84;5127011;28;20050;-55
2022/09/05 06:35:31;;;;;;;14.75;5.60;;;;;;;19.19;68.78;101548.56;5110286;28;20426;-56
2022/09/05 06:38:38;;;;;;;14.82;4.95;;;;;;;19.22;68.86;101547.34;5107340;28;20397;-56
2022/09/05 06:41:45;;;;;;;14.65;4.43;;;;;;;19.29;68.20;101548.25;5106189;28;20054;-57
2022/09/05 06:44:36;;;;;;;7.90;4.10;;;;;;;19.34;67.66;101552.03;5110173;28;20072;-57
2022/09/05 06:47:09;;;;;;;10.73;4.60;;;;;;;19.43;67.07;101546.50;5100985;28;20039;-57
2022/09/05 06:50:11;;;;;;;13.50;4.20;;;;;;;19.51;67.31;101543.69;5101657;28;20047;-57
2022/09/05 06:53:17;;;;;;;18.05;4.30;;;;;;;19.55;67.00;101545.81;5105260;28;20394;-58
2022/09/05 06:59:11;;;;;;;12.43;4.43;;;;;;;19.61;66.43;101554.13;5111527;27;20132;-58
2022/09/05 07:01:49;;;;;;;12.65;4.18;;;;;;;19.68;65.94;101549.63;5102212;28;20119;-58
2022/09/05 07:04:40;;;;;;;11.73;4.28;;;;;;;19.74;65.96;101541.63;5096578;28;20135;-58
2022/09/05 07:07:21;;;;;;;12.05;3.88;;;;;;;19.80;66.11;101552.66;5087307;28;20057;-57
2022/09/05 07:12:44;;;;;;;9.18;4.35;;;;;;;20.02;64.90;101545.34;5113632;27;20369;-58
2022/09/05 07:15:42;;;;;;;10.40;4.30;;;;;;;20.03;64.84;101553.25;5099023;28;20626;-57
2022/09/05 07:18:33;;;;;;;17.23;4.50;;;;;;;20.09;64.99;101560.53;5111254;28;20036;-58
2022/09/05 07:21:06;;;;;;;17.33;4.70;;;;;;;20.21;64.80;101552.75;5100613;28;20122;-57
2022/09/05 07:23:56;;;;;;;13.30;4.20;;;;;;;20.20;64.16;101552.94;5077083;27;20040;-58
2022/09/05 07:26:23;;;;;;;10.60;4.43;;;;;;;20.27;64.12;101557.31;5111053;27;20036;-57
2022/09/05 07:28:56;;;;;;;9.55;4.30;;;;;;;20.33;63.89;101556.50;5104993;28;20381;-58
2022/09/05 07:31:26;;;;;;;11.70;4.43;;;;;;;20.49;63.80;101558.06;5090320;28;20036;-58
2022/09/05 07:34:08;;;;;;;10.52;4.32;;;;;;;20.53;64.06;101564.69;5094597;28;20044;-59
2022/09/05 07:36:49;;;;;;;15.63;6.32;;;;;;;20.63;63.62;101566.22;5110164;28;20048;-58
2022/09/05 07:39:22;;;;;;;20.10;8.03;;;;;;;20.77;62.64;101569.81;5127281;28;20031;-58
2022/09/05 07:41:59;;;;;;;15.20;5.25;;;;;;;20.81;63.20;101566.53;5109731;28;20032;-60
2022/09/05 07:44:31;;;;;;;12.10;5.03;;;;;;;21.00;61.80;101567.59;5106750;28;20070;-58
2022/09/05 07:47:07;;;;;;;18.13;4.85;;;;;;;21.05;61.72;101569.72;5109008;28;20116;-58
2022/09/05 07:49:36;;;;;;;10.75;4.75;;;;;;;21.18;61.36;101572.44;5106791;28;20112;-57
2022/09/05 07:52:13;;;;;;;11.40;4.57;;;;;;;21.21;60.48;101568.47;5118746;27;20044;-58
2022/09/05 07:54:40;;;;;;;11.07;4.57;;;;;;;21.32;60.21;101567.91;5121332;28;20100;-58
2022/09/05 07:57:09;;;;;;;15.52;4.40;;;;;;;21.45;59.70;101569.81;5100185;27;20037;-58
2022/09/05 08:00:05;;;;;;;13.63;4.20;;;;;;;21.59;59.00;101567.94;5091799;28;20040;-57
2022/09/05 08:02:44;;;;;;;14.90;3.97;;;;;;;21.69;57.84;101565.66;5115637;28;20089;-58
2022/09/05 08:05:15;;;;;;;9.57;4.60;;;;;;;21.74;58.41;101568.56;5106018;27;20047;-58
2022/09/05 08:07:46;;;;;;;13.70;3.95;;;;;;;21.83;57.51;101572.72;5111944;28;20051;-58
2022/09/05 08:10:21;;;;;;;11.70;4.10;;;;;;;22.02;56.89;101581.00;5109354;27;20405;-58
2022/09/05 08:12:54;;;;;;;16.60;3.70;;;;;;;22.13;55.82;101576.84;5109084;28;20096;-57
2022/09/05 08:15:26;;;;;;;10.15;3.75;;;;;;;22.21;55.39;101577.47;5112163;28;20051;-57
2022/09/05 08:18:18;;;;;;;12.65;3.75;;;;;;;22.38;55.29;101574.31;5115679;27;20043;-58
2022/09/05 08:20:48;;;;;;;;;;;;;;;22.63;54.01;101574.47;5109457;28;20497;-57
2022/09/05 08:26:01;;;;;;;9.27;3.67;;;;;;;22.72;53.30;101561.50;5118964;27;20464;-57
2022/09/05 08:28:55;;;;;;;13.38;4.57;;;;;;;22.89;52.97;101556.44;5125393;27;20155;-57
2022/09/05 08:31:34;;;;;;;19.58;7.20;;;;;;;23.07;51.95;101556.56;5096879;28;20047;-57
2022/09/05 08:34:08;;;;;;;12.98;3.72;;;;;;;23.30;51.10;101553.31;5120248;27;20059;-57
2022/09/05 08:36:40;;;;;;;11.45;4.10;;;;;;;23.35;51.89;101558.03;5120770;28;20529;-57
2022/09/05 08:39:10;;;;;;;12.32;3.85;;;;;;;23.56;51.68;101551.44;5117137;28;20043;-58
2022/09/05 08:44:40;;;;;;;16.70;3.78;;;;;;;23.92;48.92;101555.28;5124363;27;20353;-57
2022/09/05 08:47:38;;;;;;;10.75;4.68;;;;;;;24.04;48.66;101553.50;5113665;27;20036;-57
2022/09/05 08:50:28;;;;;;;11.50;3.53;;;;;;;24.19;48.03;101553.16;5120091;27;20401;-57
2022/09/05 08:55:52;;;;;;;11.68;3.50;;;;;;;24.61;46.95;101544.34;5113890;27;20345;-57
2022/09/05 08:58:59;;;;;;;8.10;3.42;;;;;;;24.58;46.54;101545.66;5118345;27;20043;-57
2022/09/05 09:01:41;;;;;;;10.35;3.83;;;;;;;24.81;46.32;101542.22;5099510;28;20039;-57
2022/09/05 09:04:32;;;;;;;11.40;3.40;;;;;;;24.86;45.09;101541.53;5114310;28;20044;-58
2022/09/05 09:07:32;;;;;;;9.77;3.08;;;;;;;25.02;45.61;101540.03;5121783;28;20052;-57
2022/09/05 09:10:13;;;;;;;19.90;8.23;;;;;;;25.04;44.53;101538.75;5085639;27;20070;-58
2022/09/05 09:13:07;;;;;;;10.90;3.42;;;;;;;25.24;44.26;101537.66;5115030;28;20070;-57
2022/09/05 09:15:59;;;;;;;13.27;3.78;;;;;;;25.50;43.27;101539.09;5096641;28;20123;-57
2022/09/05 09:18:56;;;;;;;8.18;3.00;;;;;;;25.95;42.78;101544.00;5109312;28;20047;-57
2022/09/05 09:21:33;;;;;;;13.48;3.33;;;;;;;26.18;41.87;101542.34;5113636;28;20097;-57
2022/09/05 09:24:38;;;;;;;9.25;3.53;;;;;;;26.41;41.05;101539.56;5063883;27;20048;-58
2022/09/05 09:27:14;;;;;;;11.10;3.45;;;;;;;27.37;38.91;101530.72;5102544;27;20046;-58
2022/09/05 09:29:42;;;;;;;8.82;3.92;;;;;;;28.88;36.86;101533.31;5110220;28;20493;-58
2022/09/05 09:32:13;;;;;;;10.57;3.83;;;;;;;30.35;33.42;101536.59;5118748;28;20047;-57
2022/09/05 09:35:06;;;;;;;17.92;4.75;;;;;;;31.10;31.91;101538.16;5128778;27;20051;-58
2022/09/05 09:41:08;;;;;;;15.90;4.25;;;;;;;32.33;29.55;101541.53;5110895;27;20386;-57
2022/09/05 09:44:15;;;;;;;13.23;3.72;;;;;;;33.52;27.57;101547.06;5109076;28;20047;-58
2022/09/05 09:46:44;;;;;;;10.07;3.58;;;;;;;33.51;26.65;101536.34;5111033;28;20043;-57
2022/09/05 09:49:26;;;;;;;10.27;3.08;;;;;;;33.91;25.73;101537.03;5106101;28;20046;-58
2022/09/05 09:52:12;;;;;;;14.50;3.42;;;;;;;34.34;25.65;101543.41;5100735;28;20076;-57
2022/09/05 09:55:15;;;;;;;15.45;6.10;;;;;;;34.40;25.68;101539.50;5111295;28;20050;-57
2022/09/05 09:58:21;;;;;;;13.63;4.10;;;;;;;33.80;26.25;101530.84;5100345;28;20048;-57
2022/09/05 10:01:04;;;;;;;11.07;5.43;;;;;;;33.69;25.52;101534.81;5112487;28;20565;-57
2022/09/05 10:06:48;;;;;;;11.02;3.53;;;;;;;33.13;25.61;101525.13;5097864;28;20755;-57
2022/09/05 10:09:44;;;;;;;10.85;2.95;;;;;;;32.90;26.11;101528.28;5106580;28;20066;-57
2022/09/05 10:12:37;;;;;;;15.10;5.10;;;;;;;32.40;26.04;101523.91;5080669;28;20387;-57
2022/09/05 10:15:29;;;;;;;12.52;3.80;;;;;;;32.25;27.11;101522.06;5084884;28;20036;-57
2022/09/05 10:18:13;;;;;;;12.93;3.95;;;;;;;32.24;27.22;101517.69;5087744;28;20409;-58
2022/09/05 10:24:30;;;;;;;11.05;3.50;;;;;;;31.30;27.54;101505.25;5015447;28;20361;-57
2022/09/05 10:27:26;;;;;;;15.50;3.67;;;;;;;31.74;27.79;101501.09;5072541;28;20041;-57
2022/09/05 10:30:14;;;;;;;12.95;3.95;;;;;;;31.77;27.84;101497.81;5071755;28;20048;-57
2022/09/05 10:35:36;;;;;;;12.88;3.45;;;;;;;31.77;26.49;101498.63;5120153;27;20417;-57
2022/09/05 10:38:11;;;;;;;12.10;3.33;;;;;;;31.83;26.74;101491.19;5115303;27;20067;-57
2022/09/05 10:40:43;;;;;;;10.98;3.55;;;;;;;31.77;27.28;101495.88;5124603;27;20408;-57
2022/09/05 10:43:20;;;;;;;12.80;3.55;;;;;;;31.45;26.92;101493.44;5098358;28;20509;-57
2022/09/05 10:46:16;;;;;;;12.18;3.78;;;;;;;31.39;27.50;101497.31;5106803;27;20100;-57
2022/09/05 10:49:06;;;;;;;10.07;3.20;;;;;;;31.39;27.50;101489.09;5118527;28;20048;-57
2022/09/05 10:54:49;;;;;;;8.80;2.97;;;;;;;30.88;26.64;101480.84;5115340;27;20374;-57
2022/09/05 10:57:41;;;;;;;10.95;3.00;;;;;;;31.48;26.50;101489.38;5096960;28;20379;-56
2022/09/05 11:00:37;;;;;;;13.70;4.03;;;;;;;31.49;24.73;101483.63;5082978;28;20518;-57
2022/09/05 11:03:11;;;;;;;10.48;3.15;;;;;;;31.13;25.19;101486.38;5080240;28;20517;-57
2022/09/05 11:05:49;;;;;;;8.32;2.88;;;;;;;31.04;25.15;101473.50;5081250;28;20503;-57
2022/09/05 11:08:31;;;;;;;9.85;3.00;;;;;;;30.90;25.37;101478.66;5083534;28;20098;-58
2022/09/05 11:11:17;;;;;;;8.25;2.83;;;;;;;30.96;25.81;101472.13;5086257;28;20063;-58
2022/09/05 11:13:48;;;;;;;9.20;3.30;;;;;;;30.82;25.65;101469.09;5078106;28;20042;-58
2022/09/05 11:16:35;;;;;;;;;;;;;;;31.05;26.29;101455.97;5100756;28;20519;-58
2022/09/05 11:19:28;;;;;;;11.35;3.40;;;;;;;30.87;25.79;101454.56;5075286;28;20347;-57
2022/09/05 11:22:01;;;;;;;8.27;3.03;;;;;;;30.86;25.85;101456.47;5087229;28;20085;-57
2022/09/05 11:24:56;;;;;;;7.40;3.47;;;;;;;31.10;26.07;101450.47;5048843;28;20485;-57
2022/09/05 11:27:44;;;;;;;11.82;5.68;;;;;;;31.51;25.87;101450.47;5074390;28;20044;-58
2022/09/05 11:30:17;;;;;;;11.23;3.80;;;;;;;31.23;26.24;101451.84;5088747;28;20097;-58
2022/09/05 11:33:20;;;;;;;12.48;4.40;;;;;;;31.31;26.72;101451.28;5101924;28;20044;-58
2022/09/05 11:36:12;;;;;;;12.02;3.33;;;;;;;31.44;26.23;101453.44;5078354;28;20044;-57
2022/09/05 11:38:55;;;;;;;6.88;2.75;;;;;;;31.57;25.07;101449.34;5090602;28;20062;-57
2022/09/05 11:41:50;;;;;;;8.95;3.08;;;;;;;31.49;25.71;101445.25;5081894;28;20050;-58
2022/09/05 11:44:32;;;;;;;12.68;3.38;;;;;;;31.17;25.87;101445.53;5102820;28;20508;-57
2022/09/05 11:47:31;;;;;;;8.65;3.50;;;;;;;30.22;27.00;101450.31;5096061;28;20051;-57
2022/09/05 11:50:41;;;;;;;10.77;3.03;;;;;;;30.22;27.15;101444.84;5091427;28;20040;-57
2022/09/05 11:53:40;;;;;;;13.75;3.22;;;;;;;30.58;27.04;101442.22;5074342;28;20037;-58
2022/09/05 11:56:47;;;;;;;8.52;3.60;;;;;;;30.56;27.07;101440.84;5108573;28;20411;-57
2022/09/05 11:59:38;;;;;;;11.30;3.88;;;;;;;30.96;26.96;101441.97;5090282;28;20039;-57
2022/09/05 12:05:15;;;;;;;8.70;3.05;;;;;;;31.36;25.29;101434.81;5115802;27;20925;-57
2022/09/05 12:08:00;;;;;;;9.82;3.30;;;;;;;31.52;24.68;101441.94;5102057;28;20036;-57
2022/09/05 12:10:38;;;;;;;8.88;3.17;;;;;;;31.17;26.12;101438.13;5099248;28;20508;-57
2022/09/05 12:13:24;;;;;;;7.75;3.03;;;;;;;31.62;24.92;101438.34;5094329;28;20047;-57
2022/09/05 12:15:51;;;;;;;9.60;3.13;;;;;;;31.55;24.59;101432.34;5100583;28;20056;-57
2022/09/05 12:18:52;;;;;;;18.77;5.25;;;;;;;31.64;26.19;101435.34;5105489;28;20052;-57
2022/09/05 12:21:39;;;;;;;;;;;;;;;31.73;24.99;101425.44;5106601;28;20436;-57
2022/09/05 12:24:14;;;;;;;18.88;4.45;;;;;;;31.41;26.31;101425.78;5066167;27;19921;-58
2022/09/05 12:26:50;;;;;;;20.83;4.43;;;;;;;31.67;25.81;101424.63;5093853;28;20056;-58
2022/09/05 12:29:22;;;;;;;44.40;9.10;;;;;;;31.86;26.54;101424.81;5097584;28;20110;-57
2022/09/05 12:31:57;;;;;;;23.80;5.53;;;;;;;31.80;25.67;101428.69;5109033;28;20056;-57
2022/09/05 12:37:34;;;;;;;7.18;2.42;;;;;;;31.93;23.38;101430.00;5052233;28;20415;-58
2022/09/05 12:43:00;;;;;;;14.88;2.90;;;;;;;32.07;22.56;101422.00;5093449;27;20899;-57
2022/09/05 12:45:52;;;;;;;8.57;3.00;;;;;;;32.00;22.88;101421.44;5090577;28;20050;-57
2022/09/05 12:48:39;;;;;;;11.43;3.17;;;;;;;32.08;23.66;101418.97;5087137;28;20150;-57
2022/09/05 12:51:14;;;;;;;15.35;3.30;;;;;;;32.36;23.05;101419.34;5093877;28;20383;-57
2022/09/05 12:53:45;;;;;;;8.98;2.75;;;;;;;32.17;21.98;101410.97;5099991;28;20438;-57
2022/09/05 12:56:25;;;;;;;10.32;2.75;;;;;;;32.02;22.74;101413.75;5094445;28;20040;-56
2022/09/05 12:58:53;;;;;;;8.00;2.65;;;;;;;32.22;22.85;101405.47;5083831;28;20090;-57
2022/09/05 13:01:26;;;;;;;8.30;2.83;;;;;;;31.83;23.44;101405.34;5087778;28;20047;-57
2022/09/05 13:04:01;;;;;;;7.40;2.85;;;;;;;31.68;22.90;101409.81;5085486;28;20059;-57
2022/09/05 13:06:54;;;;;;;9.40;2.67;;;;;;;31.12;23.64;101402.53;5088169;28;20169;-58
2022/09/05 13:09:32;;;;;;;9.25;2.80;;;;;;;31.13;24.12;101404.19;5082528;28;20049;-57
2022/09/05 13:15:11;;;;;;;9.40;2.95;;;;;;;32.81;22.88;101402.84;5106168;27;20411;-57
2022/09/05 13:17:51;;;;;;;17.90;9.73;;;;;;;33.72;21.08;101402.22;5100353;27;20136;-56
2022/09/05 13:20:32;;;;;;;12.43;3.00;;;;;;;34.30;19.51;101396.47;5117544;28;20044;-59
2022/09/05 13:23:07;;;;;;;19.85;8.57;;;;;;;34.73;19.82;101382.56;5061716;28;20040;-58
2022/09/05 13:25:35;;;;;;;25.73;13.68;;;;;;;34.70;20.35;101387.88;5075022;28;20039;-58
2022/09/05 13:28:07;;;;;;;27.10;14.30;;;;;;;35.06;20.57;101378.97;5104578;28;20378;-58
2022/09/05 13:30:37;;;;;;;16.70;7.72;;;;;;;34.45;21.19;101381.63;5108495;28;20070;-58
2022/09/05 13:33:17;;;;;;;15.90;6.38;;;;;;;34.44;21.32;101382.75;5112734;28;20044;-58
2022/09/05 13:36:02;;;;;;;12.50;4.15;;;;;;;33.59;21.75;101370.72;5100689;28;20044;-58
2022/09/05 13:38:58;;;;;;;22.27;10.18;;;;;;;32.79;22.66;101366.59;5108850;28;20051;-58
2022/09/05 13:41:31;;;;;;;12.18;6.43;;;;;;;32.90;22.95;101363.47;5108583;28;20051;-57
2022/09/05 13:43:59;;;;;;;14.45;4.50;;;;;;;33.01;21.78;101364.19;5109515;28;20043;-58
2022/09/05 13:46:52;;;;;;;8.23;3.80;;;;;;;33.19;21.49;101367.34;5116578;27;20044;-58
2022/09/05 13:49:25;;;;;;;10.20;4.70;;;;;;;33.01;22.27;101360.63;5111577;28;20039;-58
2022/09/05 13:52:25;;;;;;;11.05;3.65;;;;;;;33.28;21.73;101369.13;5101894;28;20485;-58
2022/09/05 13:55:32;;;;;;;12.98;5.32;;;;;;;33.78;21.32;101362.50;5101875;28;20036;-58
2022/09/05 13:58:06;;;;;;;12.45;5.63;;;;;;;34.11;21.22;101351.56;5109001;27;20040;-58
2022/09/05 14:00:38;;;;;;;10.02;3.75;;;;;;;34.88;20.02;101345.66;5109232;28;20048;-58
2022/09/05 14:03:36;;;;;;;11.10;3.10;;;;;;;35.40;19.38;101355.69;5109212;28;20036;-62
2022/09/05 14:06:29;;;;;;;8.48;4.00;;;;;;;36.02;18.53;101349.66;5109227;28;20073;-60
2022/09/05 14:14:52;;;;;;;8.75;3.30;;;;;;;34.82;19.74;101344.13;5116974;27;20051;-57
2022/09/05 14:18:06;;;;;;;12.27;3.17;;;;;;;33.52;20.62;101348.25;5116479;28;20051;-57
2022/09/05 14:21:17;;;;;;;9.18;3.00;;;;;;;32.96;21.41;101342.25;5109267;27;20048;-57